createdAt,value
2018-07-26T00:01:37.251Z,8.18
2018-07-26T00:04:05.516Z,8.75
2018-07-26T00:06:33.790Z,8.23
2018-07-26T00:09:02.018Z,8.30
2018-07-26T00:11:30.251Z,8.53
2018-07-26T00:13:58.527Z,8.63
2018-07-26T00:16:26.752Z,8.83
2018-07-26T00:18:55.015Z,8.75
2018-07-26T00:21:23.269Z,8.98
2018-07-26T00:23:51.557Z,10.38
2018-07-26T00:26:19.811Z,9.73
2018-07-26T00:28:47.803Z,9.58
2018-07-26T00:31:16.092Z,9.05
2018-07-26T00:33:44.332Z,9.10
2018-07-26T00:36:12.539Z,9.35
2018-07-26T00:38:40.782Z,9.15
2018-07-26T00:41:09.079Z,8.43
2018-07-26T00:43:37.321Z,8.53
2018-07-26T00:46:05.637Z,8.75
2018-07-26T00:48:33.859Z,8.83
2018-07-26T00:51:02.107Z,8.98
2018-07-26T00:53:30.381Z,8.63
2018-07-26T00:55:58.571Z,8.68
2018-07-26T00:58:26.838Z,9.10
2018-07-26T01:00:55.104Z,9.63
2018-07-26T01:03:23.352Z,9.10
2018-07-26T01:05:51.616Z,8.50
2018-07-26T01:08:19.843Z,8.28
2018-07-26T01:10:48.081Z,8.35
2018-07-26T01:13:16.320Z,8.80
2018-07-26T01:15:44.547Z,9.10
2018-07-26T01:18:12.779Z,9.00
2018-07-26T01:20:41.037Z,8.83
2018-07-26T01:23:09.481Z,8.90
2018-07-26T01:25:37.708Z,9.60
2018-07-26T01:28:05.986Z,8.65
2018-07-26T01:30:34.239Z,9.28
2018-07-26T01:33:02.540Z,10.28
2018-07-26T01:35:30.802Z,9.13
2018-07-26T01:37:59.070Z,8.83
2018-07-26T01:40:27.305Z,8.90
2018-07-26T01:43:06.920Z,8.95
2018-07-26T01:45:35.155Z,9.15
2018-07-26T01:48:03.353Z,10.08
2018-07-26T01:50:31.596Z,9.98
2018-07-26T01:52:59.838Z,9.18
2018-07-26T01:55:28.059Z,9.90
2018-07-26T01:57:56.277Z,9.75
2018-07-26T02:00:24.503Z,9.05
2018-07-26T02:02:52.729Z,10.28
2018-07-26T02:05:20.972Z,10.82
2018-07-26T02:07:49.167Z,9.95
2018-07-26T02:10:17.423Z,11.00
2018-07-26T02:12:45.630Z,10.68
2018-07-26T02:15:13.888Z,10.25
2018-07-26T02:17:42.176Z,10.50
2018-07-26T02:20:10.397Z,10.45
2018-07-26T02:22:38.638Z,9.70
2018-07-26T02:25:06.888Z,10.30
2018-07-26T02:27:35.151Z,10.40
2018-07-26T02:30:03.375Z,9.18
2018-07-26T02:32:31.644Z,10.65
2018-07-26T02:34:59.887Z,10.50
2018-07-26T02:37:28.117Z,10.03
2018-07-26T02:39:56.375Z,8.95
2018-07-26T02:42:24.591Z,8.95
2018-07-26T02:44:52.826Z,9.60
2018-07-26T02:47:21.039Z,9.00
2018-07-26T02:49:49.260Z,9.45
2018-07-26T02:52:17.507Z,10.13
2018-07-26T02:54:45.765Z,9.43
2018-07-26T02:57:14.009Z,9.38
2018-07-26T02:59:42.238Z,9.80
2018-07-26T03:02:10.784Z,9.78
2018-07-26T03:04:39.024Z,9.58
2018-07-26T03:07:07.301Z,9.18
2018-07-26T03:09:35.514Z,9.73
2018-07-26T03:12:03.793Z,9.28
2018-07-26T03:14:36.246Z,11.48
2018-07-26T03:17:04.527Z,18.87
2018-07-26T03:19:32.794Z,28.05
2018-07-26T03:22:01.016Z,26.48
2018-07-26T03:24:29.251Z,23.30
2018-07-26T03:26:57.511Z,18.82
2018-07-26T03:29:25.748Z,22.35
2018-07-26T03:31:53.975Z,18.10
2018-07-26T03:34:22.194Z,20.65
2018-07-26T03:36:50.412Z,19.52
2018-07-26T03:39:18.637Z,16.05
2018-07-26T03:41:47.243Z,12.65
2018-07-26T03:44:15.734Z,12.93
2018-07-26T03:46:44.133Z,11.97
2018-07-26T03:49:12.574Z,11.85
2018-07-26T03:51:40.825Z,10.70
2018-07-26T03:54:09.070Z,13.15
2018-07-26T03:56:37.306Z,14.00
2018-07-26T03:59:05.782Z,12.45
2018-07-26T04:01:33.999Z,12.60
2018-07-26T04:04:02.239Z,12.65
2018-07-26T04:06:30.463Z,12.33
2018-07-26T04:08:58.692Z,12.20
2018-07-26T04:11:26.919Z,11.80
2018-07-26T04:13:55.159Z,11.70
2018-07-26T04:16:23.356Z,12.30
2018-07-26T04:18:51.594Z,12.45
2018-07-26T04:21:19.815Z,11.25
2018-07-26T04:23:48.046Z,10.65
2018-07-26T04:26:16.287Z,11.08
2018-07-26T04:28:44.545Z,11.38
2018-07-26T04:31:12.782Z,10.58
2018-07-26T04:33:41.023Z,10.98
2018-07-26T04:36:09.280Z,10.15
2018-07-26T04:38:37.548Z,11.18
2018-07-26T04:41:05.755Z,10.58
2018-07-26T04:43:34.047Z,10.90
2018-07-26T04:46:02.627Z,9.93
2018-07-26T04:48:30.846Z,10.40
2018-07-26T04:50:59.076Z,10.70
2018-07-26T04:53:27.298Z,9.30
2018-07-26T04:55:55.605Z,9.30
2018-07-26T04:58:23.877Z,9.30
2018-07-26T05:00:52.211Z,9.55
2018-07-26T05:03:20.429Z,9.05
2018-07-26T05:05:48.650Z,9.30
2018-07-26T05:08:16.896Z,9.60
2018-07-26T05:10:45.184Z,9.58
2018-07-26T05:13:13.529Z,10.10
2018-07-26T05:15:41.754Z,9.53
2018-07-26T05:18:10.405Z,9.35
2018-07-26T05:20:38.629Z,9.70
2018-07-26T05:23:07.129Z,9.63
2018-07-26T05:25:35.358Z,9.75
2018-07-26T05:28:03.591Z,10.28
2018-07-26T05:30:31.810Z,10.05
2018-07-26T05:33:00.043Z,9.40
2018-07-26T05:35:28.262Z,8.83
2018-07-26T05:37:56.634Z,8.25
2018-07-26T05:40:24.876Z,9.43
2018-07-26T05:42:53.117Z,9.85
2018-07-26T05:45:21.362Z,9.15
2018-07-26T05:47:49.599Z,9.03
2018-07-26T05:50:17.847Z,9.00
2018-07-26T05:52:46.101Z,9.43
2018-07-26T05:55:14.346Z,9.75
2018-07-26T05:57:42.613Z,9.88
2018-07-26T06:00:12.760Z,10.53
2018-07-26T06:02:41.194Z,10.68
2018-07-26T06:05:09.794Z,10.25
2018-07-26T06:07:38.073Z,9.93
2018-07-26T06:10:07.187Z,9.78
2018-07-26T06:12:35.407Z,9.95
2018-07-26T06:15:04.457Z,11.20
2018-07-26T06:17:32.674Z,10.15
2018-07-26T06:20:00.895Z,10.58
2018-07-26T06:22:29.117Z,10.25
2018-07-26T06:24:57.379Z,12.28
2018-07-26T06:27:25.726Z,12.45
2018-07-26T06:29:53.951Z,11.95
2018-07-26T06:32:22.220Z,12.13
2018-07-26T06:34:50.430Z,12.10
2018-07-26T06:37:18.622Z,12.18
2018-07-26T06:39:46.862Z,12.55
2018-07-26T06:42:15.098Z,13.25
2018-07-26T06:44:43.321Z,11.78
2018-07-26T06:47:12.041Z,13.05
2018-07-26T06:49:40.218Z,13.48
2018-07-26T06:52:08.474Z,13.22
2018-07-26T06:54:36.688Z,12.68
2018-07-26T06:57:04.966Z,12.40
2018-07-26T06:59:33.188Z,12.85
2018-07-26T07:02:01.415Z,11.88
2018-07-26T07:04:29.650Z,12.05
2018-07-26T07:06:57.618Z,12.50
2018-07-26T07:09:25.843Z,12.63
2018-07-26T07:11:54.073Z,13.85
2018-07-26T07:14:22.304Z,11.80
2018-07-26T07:16:50.554Z,10.10
2018-07-26T07:19:18.784Z,13.62
2018-07-26T07:21:47.001Z,11.93
2018-07-26T07:24:20.160Z,11.97
2018-07-26T07:26:49.520Z,11.80
2018-07-26T07:29:17.986Z,13.68
2018-07-26T07:31:46.242Z,12.90
2018-07-26T07:34:14.490Z,11.75
2018-07-26T07:36:42.722Z,12.25
2018-07-26T07:39:12.558Z,11.65
2018-07-26T07:41:41.003Z,11.60
2018-07-26T07:44:09.734Z,12.53
2018-07-26T07:46:38.497Z,12.13
2018-07-26T07:49:06.646Z,10.53
2018-07-26T07:51:34.928Z,11.75
2018-07-26T07:54:03.152Z,10.08
2018-07-26T07:56:31.425Z,11.53
2018-07-26T07:58:59.628Z,11.40
2018-07-26T08:01:27.917Z,10.03
2018-07-26T08:03:56.148Z,11.15
2018-07-26T08:06:24.424Z,11.18
2018-07-26T08:08:52.708Z,10.55
2018-07-26T08:11:20.954Z,11.15
2018-07-26T08:13:49.206Z,10.60
2018-07-26T08:16:17.484Z,9.50
2018-07-26T08:18:45.721Z,9.70
2018-07-26T08:21:13.952Z,9.70
2018-07-26T08:23:42.183Z,9.70
2018-07-26T08:26:10.453Z,10.40
2018-07-26T08:28:38.666Z,9.30
2018-07-26T08:31:06.664Z,9.75
2018-07-26T08:33:34.910Z,9.00
2018-07-26T08:36:03.109Z,9.63
2018-07-26T08:38:34.350Z,9.03
2018-07-26T08:41:02.586Z,9.00
2018-07-26T08:43:30.839Z,8.83
2018-07-26T08:45:59.049Z,9.20
2018-07-26T08:48:27.243Z,8.55
2018-07-26T08:50:55.472Z,8.43
2018-07-26T08:53:23.698Z,8.43
2018-07-26T08:55:51.908Z,8.83
2018-07-26T08:58:20.114Z,8.25
2018-07-26T09:00:48.326Z,8.10
2018-07-26T09:03:16.548Z,8.35
2018-07-26T09:05:44.789Z,7.62
2018-07-26T09:08:13.017Z,7.67
2018-07-26T09:10:41.231Z,8.38
2018-07-26T09:13:09.450Z,8.55
2018-07-26T09:15:37.682Z,7.62
2018-07-26T09:18:11.589Z,7.95
2018-07-26T09:20:39.799Z,7.33
2018-07-26T09:23:08.052Z,7.72
2018-07-26T09:25:36.273Z,7.40
2018-07-26T09:28:04.484Z,7.60
2018-07-26T09:30:32.698Z,8.20
2018-07-26T09:33:00.960Z,8.50
2018-07-26T09:35:29.199Z,7.67
2018-07-26T09:37:57.419Z,7.78
2018-07-26T09:40:25.629Z,7.70
2018-07-26T09:42:54.240Z,7.83
2018-07-26T09:45:22.462Z,6.87
2018-07-26T09:47:50.669Z,6.85
2018-07-26T09:50:18.900Z,6.80
2018-07-26T09:52:47.103Z,6.55
2018-07-26T09:55:15.322Z,6.00
2018-07-26T09:57:43.540Z,5.37
2018-07-26T10:00:11.763Z,5.47
2018-07-26T10:02:39.960Z,5.33
2018-07-26T10:05:08.199Z,5.60
2018-07-26T10:07:36.432Z,4.72
2018-07-26T10:10:04.893Z,4.42
2018-07-26T10:12:33.097Z,4.05
2018-07-26T10:15:01.386Z,4.10
2018-07-26T10:17:29.590Z,4.37
2018-07-26T10:19:57.834Z,4.47
2018-07-26T10:22:26.071Z,4.00
2018-07-26T10:24:54.324Z,4.40
2018-07-26T10:27:22.556Z,4.47
2018-07-26T10:29:50.769Z,4.37
2018-07-26T10:32:18.999Z,4.35
2018-07-26T10:34:47.232Z,4.22
2018-07-26T10:37:15.451Z,4.72
2018-07-26T10:39:43.699Z,4.45
2018-07-26T10:42:11.912Z,4.30
2018-07-26T10:44:40.147Z,4.50
2018-07-26T10:47:08.367Z,4.15
2018-07-26T10:49:36.632Z,4.72
2018-07-26T10:52:04.825Z,4.40
2018-07-26T10:54:33.048Z,3.70
2018-07-26T10:57:01.286Z,3.92
2018-07-26T10:59:29.508Z,4.10
2018-07-26T11:01:57.779Z,3.98
2018-07-26T11:04:26.016Z,4.62
2018-07-26T11:06:54.229Z,3.92
2018-07-26T11:09:22.453Z,4.40
2018-07-26T11:11:50.659Z,3.80
2018-07-26T11:14:25.322Z,4.12
2018-07-26T11:16:53.564Z,3.62
2018-07-26T11:19:21.800Z,4.47
2018-07-26T11:21:50.061Z,3.75
2018-07-26T11:24:18.315Z,3.98
2018-07-26T11:26:46.545Z,4.08
2018-07-26T11:29:14.812Z,3.98
2018-07-26T11:31:43.080Z,3.75
2018-07-26T11:34:11.359Z,4.00
2018-07-26T11:36:39.616Z,3.85
2018-07-26T11:39:09.156Z,4.45
2018-07-26T11:41:37.713Z,3.92
2018-07-26T11:44:06.202Z,3.67
2018-07-26T11:46:34.459Z,3.60
2018-07-26T11:49:02.715Z,4.00
2018-07-26T11:51:30.905Z,3.67
2018-07-26T11:53:59.131Z,3.52
2018-07-26T11:56:27.461Z,3.90
2018-07-26T11:58:55.703Z,3.40
2018-07-26T12:01:23.939Z,3.47
2018-07-26T12:03:52.197Z,3.20
2018-07-26T12:06:20.434Z,3.42
2018-07-26T12:08:48.807Z,3.00
2018-07-26T12:11:17.048Z,4.08
2018-07-26T12:13:45.292Z,3.25
2018-07-26T12:16:13.571Z,2.98
2018-07-26T12:18:41.818Z,3.02
2018-07-26T12:21:10.062Z,3.10
2018-07-26T12:23:38.303Z,2.90
2018-07-26T12:26:06.570Z,2.80
2018-07-26T12:28:34.772Z,2.90
2018-07-26T12:31:03.064Z,2.50
2018-07-26T12:33:31.340Z,2.58
2018-07-26T12:35:59.648Z,2.95
2018-07-26T12:38:27.879Z,2.60
2018-07-26T12:40:56.303Z,2.72
2018-07-26T12:43:24.548Z,2.60
2018-07-26T12:45:52.817Z,2.65
2018-07-26T12:48:21.029Z,2.67
2018-07-26T12:50:49.259Z,2.50
2018-07-26T12:55:52.155Z,2.70
2018-07-26T12:58:20.383Z,2.50
2018-07-26T13:00:48.656Z,2.50
2018-07-26T13:03:16.872Z,2.20
2018-07-26T13:05:45.087Z,2.52
2018-07-26T13:08:13.348Z,2.65
2018-07-26T13:10:41.570Z,2.35
2018-07-26T13:13:09.827Z,2.45
2018-07-26T13:15:38.070Z,2.30
2018-07-26T13:18:06.279Z,2.70
2018-07-26T13:20:34.494Z,2.72
2018-07-26T13:23:02.738Z,2.60
2018-07-26T13:25:31.070Z,2.22
2018-07-26T13:28:00.121Z,2.75
2018-07-26T13:30:28.403Z,2.42
2018-07-26T13:32:56.705Z,2.40
2018-07-26T13:35:24.937Z,2.60
2018-07-26T13:37:53.198Z,2.70
2018-07-26T13:40:21.455Z,2.30
2018-07-26T13:42:49.739Z,2.25
2018-07-26T13:45:17.940Z,2.52
2018-07-26T13:47:46.158Z,2.35
2018-07-26T13:50:14.391Z,2.27
2018-07-26T13:52:42.631Z,2.60
2018-07-26T13:55:10.855Z,2.30
2018-07-26T13:57:39.083Z,2.25
2018-07-26T14:00:07.341Z,2.27
2018-07-26T14:02:35.616Z,2.20
2018-07-26T14:05:03.863Z,2.02
2018-07-26T14:07:32.154Z,1.90
2018-07-26T14:10:00.437Z,2.20
2018-07-26T14:12:28.704Z,2.22
2018-07-26T14:14:56.906Z,2.15
2018-07-26T14:17:25.151Z,2.40
2018-07-26T14:19:53.377Z,2.00
2018-07-26T14:22:21.711Z,2.10
2018-07-26T14:24:49.875Z,2.20
2018-07-26T14:27:18.218Z,2.27
2018-07-26T14:29:46.407Z,2.30
2018-07-26T14:32:14.636Z,2.02
2018-07-26T14:34:42.893Z,2.40
2018-07-26T14:37:11.168Z,2.42
2018-07-26T14:39:39.413Z,2.40
2018-07-26T14:42:07.711Z,2.10
2018-07-26T14:44:35.927Z,1.98
2018-07-26T14:47:04.210Z,2.25
2018-07-26T14:49:32.472Z,1.87
2018-07-26T14:52:00.726Z,2.02
2018-07-26T14:54:29.062Z,2.10
2018-07-26T14:56:57.232Z,1.92
2018-07-26T14:59:25.511Z,1.95
2018-07-26T15:01:54.105Z,1.82
2018-07-26T15:04:22.315Z,2.00
2018-07-26T15:06:50.527Z,2.00
2018-07-26T15:09:18.754Z,2.00
2018-07-26T15:11:47.208Z,2.17
2018-07-26T15:14:15.494Z,1.90
2018-07-26T15:16:43.692Z,1.77
2018-07-26T15:19:11.914Z,2.10
2018-07-26T15:21:40.131Z,2.20
2018-07-26T15:24:08.473Z,2.10
2018-07-26T15:26:36.909Z,2.02
2018-07-26T15:29:05.361Z,1.90
2018-07-26T15:31:33.604Z,1.57
2018-07-26T15:34:01.843Z,1.85
2018-07-26T15:36:29.822Z,1.80
2018-07-26T15:38:58.054Z,1.82
2018-07-26T15:41:26.352Z,1.87
2018-07-26T15:43:54.580Z,1.70
2018-07-26T15:46:22.818Z,2.20
2018-07-26T15:48:51.061Z,2.00
2018-07-26T15:51:19.424Z,2.05
2018-07-26T15:53:47.659Z,1.98
2018-07-26T15:56:15.871Z,1.60
2018-07-26T15:58:44.134Z,2.12
2018-07-26T16:01:12.372Z,1.72
2018-07-26T16:03:40.583Z,1.85
2018-07-26T16:06:08.865Z,2.02
2018-07-26T16:08:37.107Z,2.00
2018-07-26T16:11:05.363Z,1.87
2018-07-26T16:13:33.645Z,1.85
2018-07-26T16:16:01.914Z,1.95
2018-07-26T16:18:30.156Z,1.87
2018-07-26T16:20:58.378Z,2.27
2018-07-26T16:23:26.584Z,2.12
2018-07-26T16:25:54.831Z,2.00
2018-07-26T16:28:23.092Z,1.70
2018-07-26T16:30:51.609Z,1.85
2018-07-26T16:33:19.854Z,2.15
2018-07-26T16:35:48.096Z,2.00
2018-07-26T16:38:16.314Z,1.95
2018-07-26T16:40:44.565Z,2.00
2018-07-26T16:43:12.794Z,2.05
2018-07-26T16:45:41.000Z,2.02
2018-07-26T16:48:09.250Z,1.98
2018-07-26T16:50:37.498Z,1.75
2018-07-26T16:53:05.718Z,1.90
2018-07-26T16:55:33.979Z,2.30
2018-07-26T16:58:02.222Z,2.08
2018-07-26T17:00:30.512Z,1.80
2018-07-26T17:02:58.854Z,2.30
2018-07-26T17:05:27.126Z,2.05
2018-07-26T17:07:55.398Z,2.08
2018-07-26T17:10:23.656Z,2.20
2018-07-26T17:12:51.911Z,2.40
2018-07-26T17:15:20.143Z,2.37
2018-07-26T17:17:48.377Z,2.20
2018-07-26T17:20:16.647Z,2.35
2018-07-26T17:22:44.901Z,1.72
2018-07-26T17:25:13.238Z,1.98
2018-07-26T17:27:41.444Z,2.08
2018-07-26T17:30:10.280Z,2.30
2018-07-26T17:32:38.534Z,2.30
2018-07-26T17:35:06.813Z,1.87
2018-07-26T17:37:35.050Z,2.30
2018-07-26T17:40:03.334Z,2.22
2018-07-26T17:42:31.616Z,1.92
2018-07-26T17:44:59.924Z,1.80
2018-07-26T17:47:28.114Z,2.30
2018-07-26T17:49:56.332Z,1.80
2018-07-26T17:52:24.559Z,1.82
2018-07-26T17:54:52.807Z,1.70
2018-07-26T17:57:21.050Z,2.20
2018-07-26T17:59:49.322Z,1.87
2018-07-26T18:02:17.593Z,2.10
2018-07-26T18:04:45.809Z,2.20
2018-07-26T18:07:14.035Z,2.00
2018-07-26T18:09:42.278Z,2.47
2018-07-26T18:12:10.764Z,1.85
2018-07-26T18:14:38.986Z,2.15
2018-07-26T18:17:07.239Z,2.00
2018-07-26T18:19:35.488Z,2.08
2018-07-26T18:22:03.722Z,1.98
2018-07-26T18:24:31.932Z,1.90
2018-07-26T18:27:00.238Z,2.12
2018-07-26T18:29:28.497Z,2.22
2018-07-26T18:31:56.714Z,2.40
2018-07-26T18:34:24.961Z,2.15
2018-07-26T18:36:53.215Z,1.90
2018-07-26T18:39:21.435Z,2.27
2018-07-26T18:41:49.664Z,2.33
2018-07-26T18:44:17.900Z,2.50
2018-07-26T18:46:46.110Z,2.27
2018-07-26T18:49:14.327Z,2.20
2018-07-26T18:51:42.510Z,2.10
2018-07-26T18:54:10.732Z,2.50
2018-07-26T18:56:38.944Z,2.22
2018-07-26T18:59:07.151Z,2.20
2018-07-26T19:01:35.365Z,2.02
2018-07-26T19:04:03.644Z,2.40
2018-07-26T19:06:31.895Z,2.17
2018-07-26T19:09:00.144Z,2.60
2018-07-26T19:11:28.450Z,2.35
2018-07-26T19:13:56.699Z,2.37
2018-07-26T19:16:24.694Z,2.30
2018-07-26T19:18:52.906Z,2.37
2018-07-26T19:21:21.200Z,2.10
2018-07-26T19:23:49.450Z,2.30
2018-07-26T19:26:17.644Z,2.30
2018-07-26T19:28:45.882Z,2.15
2018-07-26T19:31:14.095Z,2.30
2018-07-26T19:33:42.364Z,2.30
2018-07-26T19:36:10.669Z,2.47
2018-07-26T19:38:38.874Z,2.17
2018-07-26T19:41:07.149Z,2.40
2018-07-26T19:43:35.367Z,2.35
2018-07-26T19:46:03.603Z,2.67
2018-07-26T19:48:31.870Z,2.40
2018-07-26T19:51:00.152Z,2.58
2018-07-26T19:53:28.387Z,2.87
2018-07-26T19:55:56.649Z,3.02
2018-07-26T19:58:24.876Z,2.75
2018-07-26T20:00:53.102Z,2.60
2018-07-26T20:03:21.328Z,2.60
2018-07-26T20:05:49.542Z,3.05
2018-07-26T20:08:17.772Z,2.80
2018-07-26T20:10:45.988Z,2.37
2018-07-26T20:13:14.234Z,2.65
2018-07-26T20:15:42.461Z,3.00
2018-07-26T20:18:10.691Z,2.80
2018-07-26T20:20:38.911Z,3.10
2018-07-26T20:23:07.126Z,2.62
2018-07-26T20:25:39.576Z,2.62
2018-07-26T20:28:07.909Z,2.70
2018-07-26T20:30:36.062Z,2.95
2018-07-26T20:33:04.306Z,2.92
2018-07-26T20:35:32.493Z,2.70
2018-07-26T20:38:00.809Z,2.80
2018-07-26T20:40:29.052Z,2.75
2018-07-26T20:42:57.289Z,3.00
2018-07-26T20:45:25.494Z,3.15
2018-07-26T20:47:53.708Z,2.90
2018-07-26T20:50:21.957Z,3.50
2018-07-26T20:52:50.149Z,3.02
2018-07-26T20:55:18.367Z,3.40
2018-07-26T20:57:46.561Z,3.47
2018-07-26T21:00:14.923Z,3.33
2018-07-26T21:02:43.350Z,3.02
2018-07-26T21:05:11.638Z,3.10
2018-07-26T21:07:39.862Z,2.70
2018-07-26T21:10:08.887Z,3.10
2018-07-26T21:12:37.184Z,2.85
2018-07-26T21:15:06.298Z,3.22
2018-07-26T21:17:34.540Z,3.37
2018-07-26T21:20:02.787Z,3.30
2018-07-26T21:22:31.059Z,3.00
2018-07-26T21:24:59.290Z,3.00
2018-07-26T21:27:27.537Z,3.40
2018-07-26T21:29:55.794Z,3.62
2018-07-26T21:32:24.009Z,2.90
2018-07-26T21:34:52.331Z,2.90
2018-07-26T21:37:20.863Z,3.37
2018-07-26T21:39:49.094Z,3.50
2018-07-26T21:42:17.313Z,3.15
2018-07-26T21:44:45.536Z,3.17
2018-07-26T21:47:13.768Z,3.17
2018-07-26T21:49:41.991Z,2.72
2018-07-26T21:52:10.198Z,3.02
2018-07-26T21:54:38.448Z,2.92
2018-07-26T21:57:06.673Z,3.30
2018-07-26T21:59:34.898Z,3.08
2018-07-26T22:02:03.151Z,3.30
2018-07-26T22:04:31.413Z,3.45
2018-07-26T22:06:59.674Z,3.27
2018-07-26T22:09:27.907Z,3.05
2018-07-26T22:11:56.173Z,3.10
2018-07-26T22:14:24.425Z,3.35
2018-07-26T22:16:52.613Z,3.25
2018-07-26T22:19:20.839Z,3.30
2018-07-26T22:21:49.044Z,3.17
2018-07-26T22:24:17.259Z,3.85
2018-07-26T22:26:45.517Z,3.40
2018-07-26T22:29:13.745Z,3.75
2018-07-26T22:31:41.995Z,3.17
2018-07-26T22:34:10.255Z,3.70
2018-07-26T22:36:38.463Z,3.70
2018-07-26T22:39:08.178Z,3.50
2018-07-26T22:41:36.392Z,3.75
2018-07-26T22:44:04.691Z,4.12
2018-07-26T22:46:32.942Z,3.90
2018-07-26T22:49:01.275Z,3.55
2018-07-26T22:51:29.555Z,3.70
2018-07-26T22:53:57.765Z,3.10
2018-07-26T22:56:26.007Z,3.30
2018-07-26T22:58:54.231Z,3.17
2018-07-26T23:01:22.504Z,3.35
2018-07-26T23:03:50.780Z,3.37
2018-07-26T23:06:18.975Z,3.83
2018-07-26T23:08:47.205Z,2.92
2018-07-26T23:11:15.407Z,3.30
2018-07-26T23:13:43.681Z,2.98
2018-07-26T23:16:11.914Z,3.22
2018-07-26T23:18:40.139Z,3.70
2018-07-26T23:21:08.345Z,3.22
2018-07-26T23:23:36.625Z,3.72
2018-07-26T23:26:04.858Z,3.70
2018-07-26T23:28:33.098Z,3.55
2018-07-26T23:31:01.347Z,3.02
2018-07-26T23:33:29.699Z,3.37
2018-07-26T23:35:57.656Z,3.52
2018-07-26T23:38:25.853Z,3.20
2018-07-26T23:40:54.062Z,3.20
2018-07-26T23:43:22.283Z,3.37
2018-07-26T23:45:50.521Z,3.08
2018-07-26T23:48:18.812Z,3.17
2018-07-26T23:50:47.045Z,3.25
2018-07-26T23:53:15.275Z,3.72
2018-07-26T23:55:43.518Z,3.17
2018-07-26T23:58:11.739Z,3.55
